Time;durP1;ratioP1;P1;durP2;ratioP2;P2;SDS_P1;SDS_P2;PMS_P1;PMS_P2;Temp;Humidity;BMP_temperature;BMP_pressure;BME280_temperature;BME280_humidity;BME280_pressure;Samples;Min_cycle;Max_cycle;Signal;HPM_P1;HPM_P2
2023/07/28 00:00:49;;;;;;;3.27;1.80;;;;;;;18.41;100.00;101339.19;2533528;23;20157;-66
2023/07/28 00:01:49;;;;;;;2.00;1.50;;;;;;;18.40;100.00;101346.03;2533641;23;20154;-66
2023/07/28 00:02:49;;;;;;;3.40;1.53;;;;;;;18.43;100.00;101347.91;2533662;23;20151;-67
2023/07/28 00:03:50;;;;;;;2.83;1.60;;;;;;;18.37;100.00;101340.59;2533599;23;20158;-67
2023/07/28 00:04:50;;;;;;;1.83;1.40;;;;;;;18.42;100.00;101343.53;2533516;23;20209;-66
2023/07/28 00:05:51;;;;;;;3.80;1.50;;;;;;;18.47;100.00;101344.94;2533601;23;20233;-66
2023/07/28 00:06:51;;;;;;;2.90;1.60;;;;;;;18.36;100.00;101324.97;2533548;23;20267;-67
2023/07/28 00:07:52;;;;;;;3.13;1.60;;;;;;;18.43;100.00;101347.91;2533562;23;20159;-67
2023/07/28 00:08:52;;;;;;;4.80;1.73;;;;;;;18.31;100.00;101345.25;2533602;23;20150;-66
2023/07/28 00:09:53;;;;;;;2.37;1.50;;;;;;;18.27;100.00;101346.16;2533620;23;20182;-66
2023/07/28 00:10:53;;;;;;;8.73;1.83;;;;;;;18.08;100.00;101319.34;2533576;23;20156;-67
2023/07/28 00:11:54;;;;;;;6.70;1.97;;;;;;;18.21;100.00;101349.31;2533592;23;20226;-66
2023/07/28 00:12:54;;;;;;;6.73;2.20;;;;;;;17.88;100.00;101281.81;2533568;23;20150;-67
2023/07/28 00:13:54;;;;;;;5.70;2.00;;;;;;;18.26;100.00;101352.25;2533611;23;20570;-67
2023/07/28 00:14:55;;;;;;;5.67;2.00;;;;;;;18.23;100.00;101348.34;2534304;23;20154;-66
2023/07/28 00:15:55;;;;;;;4.03;1.70;;;;;;;18.16;100.00;101335.91;2534283;23;20147;-67
2023/07/28 00:16:57;;;;;;;5.93;1.67;;;;;;;18.17;100.00;101346.63;2534260;23;20188;-66
2023/07/28 00:17:59;;;;;;;4.27;1.90;;;;;;;18.04;100.00;101334.78;2534312;23;20178;-67
2023/07/28 00:19:00;;;;;;;6.80;1.70;;;;;;;18.02;100.00;101350.53;2534265;23;20382;-67
2023/07/28 00:20:00;;;;;;;4.57;1.70;;;;;;;17.58;100.00;101277.88;2534195;23;20497;-67
2023/07/28 00:21:01;;;;;;;3.40;1.60;;;;;;;17.96;100.00;101344.75;2534208;23;20272;-67
2023/07/28 00:22:01;;;;;;;3.10;1.53;;;;;;;18.02;100.00;101346.47;2534228;23;20150;-67
2023/07/28 00:23:02;;;;;;;5.77;2.17;;;;;;;17.96;100.00;101344.75;2534293;23;20593;-67
2023/07/28 00:24:02;;;;;;;2.80;1.63;;;;;;;17.94;100.00;101347.25;2534253;23;20498;-67
2023/07/28 00:25:03;;;;;;;2.30;1.60;;;;;;;17.90;100.00;101343.03;2534267;23;20230;-66
2023/07/28 00:26:03;;;;;;;2.83;1.83;;;;;;;17.88;100.00;101341.47;2534250;23;20178;-67
2023/07/28 00:27:04;;;;;;;3.27;1.50;;;;;;;17.84;100.00;101348.47;2534200;23;20160;-67
2023/07/28 00:28:05;;;;;;;5.27;1.60;;;;;;;17.82;100.00;101344.56;2521328;23;20211;-67
2023/07/28 00:29:06;;;;;;;4.13;1.70;;;;;;;17.73;100.00;101348.91;2521394;23;20154;-67
2023/07/28 00:30:07;;;;;;;3.93;1.67;;;;;;;17.71;100.00;101342.19;2534254;23;20157;-67
2023/07/28 00:31:07;;;;;;;3.90;1.77;;;;;;;17.73;100.00;101339.72;2534096;23;20379;-67
2023/07/28 00:32:08;;;;;;;2.60;1.70;;;;;;;17.68;100.00;101343.91;2534227;23;20177;-67
2023/07/28 00:33:08;;;;;;;4.20;1.87;;;;;;;17.67;100.00;101344.41;2534271;23;20594;-67
2023/07/28 00:34:09;;;;;;;3.00;1.80;;;;;;;17.65;100.00;101343.28;2534156;23;20160;-67
2023/07/28 00:35:09;;;;;;;3.13;1.60;;;;;;;17.62;100.00;101338.59;2534189;23;20623;-67
2023/07/28 00:36:10;;;;;;;3.63;1.73;;;;;;;16.39;100.00;101155.97;2534160;23;20151;-67
2023/07/28 00:37:10;;;;;;;4.70;2.00;;;;;;;17.57;100.00;101337.22;2534076;23;20154;-67
2023/07/28 00:38:11;;;;;;;3.53;1.80;;;;;;;17.57;100.00;101344.81;2534108;23;20147;-67
2023/07/28 00:39:11;;;;;;;4.13;1.77;;;;;;;16.83;100.00;101229.41;2534245;23;20226;-67
2023/07/28 00:40:12;;;;;;;3.40;1.60;;;;;;;17.53;100.00;101344.97;2534138;23;20149;-67
2023/07/28 00:41:13;;;;;;;3.73;1.90;;;;;;;17.44;100.00;101339.34;2534017;23;20178;-67
2023/07/28 00:42:13;;;;;;;2.90;1.90;;;;;;;17.49;100.00;101340.75;2534113;23;20388;-67
2023/07/28 00:43:13;;;;;;;3.03;1.60;;;;;;;17.50;100.00;101336.72;2521282;23;20162;-67
2023/07/28 00:44:16;;;;;;;4.47;1.87;;;;;;;16.85;100.00;101256.44;2521294;23;20158;-69
2023/07/28 00:45:16;;;;;;;3.00;1.70;;;;;;;17.41;100.00;101342.28;2534241;23;20248;-69
2023/07/28 00:46:17;;;;;;;4.00;1.77;;;;;;;17.45;100.00;101351.34;2521309;23;20392;-69
2023/07/28 00:47:17;;;;;;;3.53;1.90;;;;;;;17.46;100.00;101352.88;2521320;23;20159;-69
2023/07/28 00:48:18;;;;;;;3.97;1.83;;;;;;;17.48;100.00;101359.59;2534115;23;20502;-69
2023/07/28 00:49:18;;;;;;;2.70;1.57;;;;;;;17.50;100.00;101353.53;2534119;23;20159;-69
2023/07/28 00:50:19;;;;;;;2.23;1.43;;;;;;;17.49;100.00;101341.53;2534148;23;20205;-69
2023/07/28 00:51:21;;;;;;;3.03;1.77;;;;;;;17.42;100.00;101351.00;2534151;23;20148;-69
2023/07/28 00:52:21;;;;;;;2.37;1.60;;;;;;;17.08;100.00;101308.34;2533909;23;20649;-69
2023/07/28 00:53:23;;;;;;;3.27;1.60;;;;;;;17.30;100.00;101342.66;2534126;23;20717;-69
2023/07/28 00:54:24;;;;;;;2.13;1.63;;;;;;;17.28;100.00;101345.94;2521219;23;20237;-69
2023/07/28 00:55:25;;;;;;;4.47;1.70;;;;;;;17.16;100.00;101346.81;2521295;23;20861;-69
2023/07/28 00:56:25;;;;;;;4.27;1.90;;;;;;;17.19;100.00;101334.69;2534177;23;20150;-69
2023/07/28 00:57:26;;;;;;;2.40;1.63;;;;;;;17.26;100.00;101348.41;2521218;23;20199;-69
2023/07/28 00:58:27;;;;;;;3.23;1.70;;;;;;;17.20;100.00;101349.47;2521275;23;20158;-69
2023/07/28 00:59:27;;;;;;;3.10;1.63;;;;;;;16.85;100.00;101295.63;2534093;23;20623;-69
2023/07/28 01:00:28;;;;;;;3.27;1.70;;;;;;;17.23;100.00;101351.38;2534095;23;20460;-69
2023/07/28 01:01:28;;;;;;;3.20;1.60;;;;;;;17.08;100.00;101330.75;2533996;23;20532;-69
2023/07/28 01:02:29;;;;;;;3.67;1.60;;;;;;;17.23;100.00;101345.75;2534033;23;20524;-69
2023/07/28 01:03:30;;;;;;;3.00;1.80;;;;;;;17.21;100.00;101351.06;2534097;23;20660;-69
2023/07/28 01:04:31;;;;;;;4.13;1.70;;;;;;;17.06;100.00;101319.25;2533964;23;20154;-69
2023/07/28 01:06:13;;;;;;;2.50;1.80;;;;;;;17.22;100.00;101339.38;2534016;23;20378;-69
2023/07/28 01:07:21;;;;;;;3.40;1.57;;;;;;;16.58;100.00;101238.75;2534095;23;20163;-70
2023/07/28 01:08:37;;;;;;;2.50;1.30;;;;;;;17.25;100.00;101346.06;2534161;23;20373;-69
2023/07/28 01:09:54;;;;;;;2.90;1.83;;;;;;;16.96;100.00;101312.81;2534234;23;20373;-69
2023/07/28 01:10:54;;;;;;;4.27;1.80;;;;;;;17.17;100.00;101336.41;2534213;23;20366;-70
2023/07/28 01:11:58;;;;;;;3.73;1.60;;;;;;;16.50;100.00;101232.66;2534102;23;20373;-69
2023/07/28 01:12:59;;;;;;;2.80;1.70;;;;;;;17.28;100.00;101345.94;2534058;23;20168;-69
2023/07/28 01:13:59;;;;;;;4.23;1.70;;;;;;;17.30;100.00;101346.25;2534012;23;20424;-69
2023/07/28 01:15:00;;;;;;;3.87;1.80;;;;;;;17.32;100.00;101346.56;2534043;23;20149;-69
2023/07/28 01:16:00;;;;;;;2.23;1.50;;;;;;;16.73;100.00;101250.94;2534041;23;20183;-69
2023/07/28 01:17:01;;;;;;;3.03;1.60;;;;;;;17.33;100.00;101334.16;2534103;23;20149;-69
2023/07/28 01:18:01;;;;;;;2.57;1.43;;;;;;;17.39;100.00;101342.75;2534086;23;20160;-69
2023/07/28 01:19:02;;;;;;;3.77;1.80;;;;;;;17.40;100.00;101341.50;2534064;23;20498;-69
2023/07/28 01:20:03;;;;;;;3.47;1.60;;;;;;;17.41;100.00;101342.28;2534043;23;20157;-69
2023/07/28 01:21:08;;;;;;;3.20;1.43;;;;;;;17.41;100.00;101333.88;2533955;23;20192;-69
2023/07/28 01:22:26;;;;;;;3.00;1.60;;;;;;;17.42;100.00;101335.44;2534071;23;20477;-69
2023/07/28 01:23:42;;;;;;;2.47;1.60;;;;;;;17.35;100.00;101331.66;2534014;23;20362;-69
2023/07/28 01:24:49;;;;;;;6.53;1.70;;;;;;;17.32;100.00;101332.56;2534054;23;20368;-69
2023/07/28 01:26:11;;;;;;;2.40;1.50;;;;;;;17.29;100.00;101330.69;2521019;23;20922;-69
2023/07/28 01:27:12;;;;;;;4.40;1.70;;;;;;;17.22;100.00;101330.97;2525805;23;20965;-69
2023/07/28 01:28:13;;;;;;;5.07;1.63;;;;;;;17.24;100.00;101327.72;2533933;23;20373;-69
2023/07/28 01:29:15;;;;;;;2.40;1.70;;;;;;;17.24;100.00;101334.09;2534121;23;20189;-69
2023/07/28 01:30:15;;;;;;;3.80;1.67;;;;;;;17.25;100.00;101337.66;2534014;23;20959;-69
2023/07/28 01:31:16;;;;;;;2.63;1.80;;;;;;;17.22;100.00;101330.19;2533964;23;20784;-69
2023/07/28 01:32:16;;;;;;;2.53;1.50;;;;;;;17.21;100.00;101334.25;2534034;23;20634;-69
2023/07/28 01:33:17;;;;;;;3.30;1.70;;;;;;;17.23;100.00;101332.56;2533968;23;20158;-69
2023/07/28 01:34:17;;;;;;;2.77;1.50;;;;;;;17.21;100.00;101332.22;2533885;23;20185;-69
2023/07/28 01:35:18;;;;;;;2.70;1.60;;;;;;;17.17;100.00;101339.22;2521017;23;20218;-69
2023/07/28 01:36:18;;;;;;;3.67;1.40;;;;;;;17.17;100.00;101336.41;2521098;23;20176;-69
2023/07/28 01:37:19;;;;;;;3.00;1.50;;;;;;;16.64;100.00;101267.72;2533935;23;20153;-69
2023/07/28 01:38:19;;;;;;;3.73;1.63;;;;;;;17.15;100.00;101342.47;2533929;23;20181;-69
2023/07/28 01:39:19;;;;;;;1.90;1.50;;;;;;;17.02;100.00;101325.00;2533509;23;20171;-69
2023/07/28 01:40:20;;;;;;;2.77;1.60;;;;;;;17.08;100.00;101341.97;2533909;23;20154;-69
2023/07/28 01:41:20;;;;;;;3.10;1.67;;;;;;;16.45;100.00;101264.00;2533822;23;20245;-69
2023/07/28 01:42:21;;;;;;;4.23;1.60;;;;;;;17.02;100.00;101338.19;2533906;23;20624;-69
2023/07/28 01:43:21;;;;;;;1.83;1.37;;;;;;;17.03;100.00;101348.16;2533896;23;20155;-69
2023/07/28 01:44:22;;;;;;;2.80;1.77;;;;;;;17.00;100.00;101340.69;2533952;23;20609;-69
2023/07/28 01:45:22;;;;;;;2.13;1.60;;;;;;;17.00;100.00;101344.25;2533957;23;20609;-69
2023/07/28 01:46:23;;;;;;;2.20;1.70;;;;;;;16.95;100.00;101350.44;2533928;23;20237;-69
2023/07/28 01:47:25;;;;;;;3.20;1.53;;;;;;;16.98;100.00;101346.75;2533879;23;20472;-67
2023/07/28 01:48:26;;;;;;;2.63;1.50;;;;;;;17.00;100.00;101346.28;2533974;23;20185;-67
2023/07/28 01:49:26;;;;;;;1.70;1.30;;;;;;;17.03;100.00;101345.34;2533968;23;20382;-69
2023/07/28 01:50:27;;;;;;;2.80;1.70;;;;;;;17.02;100.00;101335.41;2533886;23;20382;-69
2023/07/28 01:51:27;;;;;;;1.87;1.60;;;;;;;16.98;100.00;101331.94;2533994;23;20151;-69
2023/07/28 01:52:28;;;;;;;1.73;1.50;;;;;;;17.04;100.00;101338.50;2533600;23;20229;-69
2023/07/28 01:53:28;;;;;;;2.63;1.50;;;;;;;16.42;100.00;101248.16;2533941;23;20143;-69
2023/07/28 01:54:28;;;;;;;2.67;1.83;;;;;;;16.98;100.00;101343.94;2533852;23;20155;-69
2023/07/28 01:55:29;;;;;;;2.67;1.50;;;;;;;16.96;100.00;101334.44;2533913;23;20151;-69
2023/07/28 01:56:29;;;;;;;3.17;1.80;;;;;;;17.09;100.00;101341.50;2533810;23;20152;-69
2023/07/28 01:57:33;;;;;;;3.33;1.80;;;;;;;16.64;100.00;101271.28;2520962;23;20241;-69
2023/07/28 01:58:33;;;;;;;3.67;1.63;;;;;;;17.16;100.00;101344.00;2521799;23;20157;-69
2023/07/28 01:59:34;;;;;;;5.30;1.90;;;;;;;16.97;100.00;101308.00;2533877;23;20382;-69
2023/07/28 02:00:35;;;;;;;4.90;1.80;;;;;;;17.22;100.00;101347.78;2533905;23;20166;-69
2023/07/28 02:01:35;;;;;;;4.83;1.80;;;;;;;17.19;100.00;101343.09;2533789;23;20206;-69
2023/07/28 02:02:36;;;;;;;3.53;1.90;;;;;;;17.20;100.00;101339.06;2533785;23;20206;-69
2023/07/28 02:03:36;;;;;;;2.20;1.80;;;;;;;17.23;100.00;101340.94;2533869;23;20154;-69
2023/07/28 02:04:36;;;;;;;2.83;1.70;;;;;;;17.26;100.00;101344.84;2533819;23;20162;-69
2023/07/28 02:05:37;;;;;;;4.00;1.60;;;;;;;17.30;100.00;101339.88;2533831;23;20238;-69
2023/07/28 02:06:37;;;;;;;1.97;1.50;;;;;;;17.30;100.00;101348.28;2533835;23;20181;-69
2023/07/28 02:07:38;;;;;;;4.33;1.60;;;;;;;16.91;100.00;101290.25;2533823;23;20154;-69
2023/07/28 02:08:38;;;;;;;2.43;1.60;;;;;;;17.30;100.00;101351.88;2533994;23;20155;-69
2023/07/28 02:09:39;;;;;;;3.27;1.50;;;;;;;17.28;100.00;101347.97;2533798;23;20181;-69
2023/07/28 02:10:39;;;;;;;3.60;1.83;;;;;;;17.29;100.00;101355.13;2533826;23;20178;-69
2023/07/28 02:11:39;;;;;;;4.93;1.90;;;;;;;16.17;100.00;101188.75;2533788;23;20151;-69
2023/07/28 02:12:40;;;;;;;3.27;1.77;;;;;;;17.12;100.00;101354.56;2533818;23;20536;-69
2023/07/28 02:13:40;;;;;;;4.57;1.80;;;;;;;17.12;100.00;101356.59;2533805;23;20603;-69
2023/07/28 02:14:41;;;;;;;2.90;1.70;;;;;;;17.12;100.00;101354.56;2533747;23;20158;-69
2023/07/28 02:15:41;;;;;;;3.37;1.60;;;;;;;16.91;100.00;101323.84;2533827;23;20185;-69
2023/07/28 02:16:42;;;;;;;3.60;2.07;;;;;;;16.74;100.00;101303.69;2533824;23;20150;-69
2023/07/28 02:17:42;;;;;;;2.83;1.80;;;;;;;17.09;100.00;101357.50;2533789;23;20729;-69
2023/07/28 02:18:43;;;;;;;6.47;1.70;;;;;;;17.09;100.00;101361.09;2533853;23;20157;-69
2023/07/28 02:19:43;;;;;;;3.70;1.97;;;;;;;17.10;100.00;101367.47;2533780;23;20155;-69
2023/07/28 02:20:43;;;;;;;2.50;1.80;;;;;;;16.89;100.00;101338.28;2533786;23;20179;-69
2023/07/28 02:21:44;;;;;;;2.17;1.50;;;;;;;16.88;100.00;101336.72;2533708;23;20186;-69
2023/07/28 02:22:44;;;;;;;2.93;1.70;;;;;;;17.06;100.00;101367.63;2533799;23;20234;-69
2023/07/28 02:23:45;;;;;;;2.10;1.57;;;;;;;17.02;100.00;101357.78;2520839;23;20164;-69
2023/07/28 02:24:46;;;;;;;3.50;1.70;;;;;;;17.11;100.00;101366.25;2521065;23;20640;-69
2023/07/28 02:25:46;;;;;;;4.00;1.70;;;;;;;16.50;100.00;101280.22;2533846;23;20206;-69
2023/07/28 02:26:47;;;;;;;2.37;1.63;;;;;;;16.86;100.00;101330.03;2533854;23;20154;-70
2023/07/28 02:27:47;;;;;;;1.77;1.50;;;;;;;17.06;100.00;101369.66;2533816;23;20346;-69
2023/07/28 02:28:47;;;;;;;2.43;1.70;;;;;;;17.04;100.00;101377.72;2520906;23;20167;-69
2023/07/28 02:29:48;;;;;;;8.43;1.90;;;;;;;17.06;100.00;101369.66;2520964;23;20605;-69
2023/07/28 02:30:48;;;;;;;4.40;1.70;;;;;;;16.97;100.00;101366.78;2533763;23;20663;-69
2023/07/28 02:31:49;;;;;;;3.10;1.70;;;;;;;17.07;100.00;101382.41;2533741;23;20150;-69
2023/07/28 02:32:49;;;;;;;3.03;1.67;;;;;;;17.04;100.00;101384.09;2533764;23;20616;-69
2023/07/28 02:33:49;;;;;;;3.50;1.87;;;;;;;17.04;100.00;101381.31;2533754;23;20188;-69
2023/07/28 02:34:50;;;;;;;2.90;2.00;;;;;;;16.99;100.00;101381.91;2533645;23;20221;-69
2023/07/28 02:35:50;;;;;;;2.40;1.70;;;;;;;16.94;100.00;101379.69;2533771;23;20178;-69
2023/07/28 02:36:51;;;;;;;2.97;1.77;;;;;;;16.43;100.00;101308.47;2533533;23;20486;-69
2023/07/28 02:37:51;;;;;;;4.10;2.00;;;;;;;16.36;100.00;101291.91;2533763;23;20151;-69
2023/07/28 02:38:52;;;;;;;3.53;2.33;;;;;;;16.94;100.00;101388.09;2533637;23;20230;-69
2023/07/28 02:39:52;;;;;;;3.60;2.00;;;;;;;16.62;100.00;101336.56;2533861;23;20156;-69
2023/07/28 02:40:53;;;;;;;2.87;1.90;;;;;;;16.88;100.00;101374.38;2533824;23;20154;-69
2023/07/28 02:41:53;;;;;;;2.87;2.00;;;;;;;16.66;100.00;101346.38;2533636;23;20226;-69
2023/07/28 02:42:54;;;;;;;2.70;1.60;;;;;;;16.60;100.00;101348.22;2520872;23;20231;-69
2023/07/28 02:43:54;;;;;;;5.80;2.00;;;;;;;16.74;100.00;101354.06;2520909;23;20148;-69
2023/07/28 02:44:55;;;;;;;3.50;1.80;;;;;;;16.96;100.00;101387.63;2533736;23;20210;-69
2023/07/28 02:45:57;;;;;;;5.40;2.27;;;;;;;16.97;100.00;101386.41;2533667;23;20147;-69
2023/07/28 02:46:57;;;;;;;3.30;1.83;;;;;;;16.98;100.00;101384.38;2533673;23;20158;-69
2023/07/28 02:47:57;;;;;;;5.50;2.10;;;;;;;16.98;100.00;101379.53;2533622;23;20438;-69
2023/07/28 02:48:58;;;;;;;4.50;2.10;;;;;;;16.99;100.00;101386.69;2533835;23;20217;-69
2023/07/28 02:49:58;;;;;;;1.93;1.50;;;;;;;17.00;100.00;101385.50;2533640;23;20150;-69
2023/07/28 02:50:59;;;;;;;3.10;1.80;;;;;;;16.95;100.00;101384.03;2533590;23;20173;-69
2023/07/28 02:51:59;;;;;;;4.70;1.80;;;;;;;16.71;100.00;101357.00;2533668;23;20150;-69
2023/07/28 02:52:59;;;;;;;4.40;2.40;;;;;;;16.91;100.00;101385.44;2533581;23;20192;-69
2023/07/28 02:54:00;;;;;;;5.07;2.10;;;;;;;15.91;100.00;101234.84;2533712;23;20615;-69
2023/07/28 02:55:01;;;;;;;2.63;1.90;;;;;;;16.73;100.00;101371.31;2533720;23;20205;-69
2023/07/28 02:56:01;;;;;;;5.03;2.00;;;;;;;16.79;100.00;101389.06;2533977;23;20607;-70
2023/07/28 02:57:02;;;;;;;3.27;2.10;;;;;;;16.80;100.00;101393.44;2533657;23;20496;-69
2023/07/28 02:58:03;;;;;;;3.13;1.80;;;;;;;16.73;100.00;101390.88;2533662;23;20146;-69
2023/07/28 02:59:04;;;;;;;4.47;2.03;;;;;;;16.74;100.00;101390.44;2533813;23;20182;-69
2023/07/28 03:00:07;;;;;;;2.53;1.70;;;;;;;16.73;100.00;101386.09;2533624;23;20158;-69
2023/07/28 03:01:07;;;;;;;4.97;1.90;;;;;;;16.60;100.00;101373.41;2533606;23;21107;-69
2023/07/28 03:02:08;;;;;;;2.93;2.00;;;;;;;16.78;100.00;101393.09;2533609;23;20815;-69
2023/07/28 03:03:12;;;;;;;2.43;1.83;;;;;;;16.77;100.00;101389.53;2533701;23;20154;-69
2023/07/28 03:04:13;;;;;;;3.03;2.00;;;;;;;16.79;100.00;101397.47;2533597;23;20146;-69
2023/07/28 03:05:13;;;;;;;3.10;2.00;;;;;;;16.83;100.00;101386.91;2533676;23;20379;-69
2023/07/28 03:06:13;;;;;;;3.27;2.00;;;;;;;16.12;100.00;101285.19;2533649;23;20154;-69
2023/07/28 03:07:14;;;;;;;3.13;2.30;;;;;;;16.78;100.00;101396.69;2533616;23;20212;-69
2023/07/28 03:08:14;;;;;;;2.77;1.80;;;;;;;16.29;100.00;101316.56;2533691;23;20170;-69
2023/07/28 03:09:15;;;;;;;5.17;2.00;;;;;;;16.82;100.00;101399.38;2533692;23;20174;-69
2023/07/28 03:10:18;;;;;;;2.23;1.70;;;;;;;16.72;100.00;101394.94;2533578;23;20567;-69
2023/07/28 03:11:19;;;;;;;2.83;1.90;;;;;;;16.39;100.00;101340.59;2533590;23;20165;-69
2023/07/28 03:12:19;;;;;;;3.90;1.93;;;;;;;16.78;100.00;101405.09;2533699;23;20374;-69
2023/07/28 03:13:20;;;;;;;3.77;1.80;;;;;;;16.80;100.00;101405.41;2533590;23;20160;-70
2023/07/28 03:14:20;;;;;;;3.83;2.30;;;;;;;16.58;100.00;101367.47;2533612;23;20160;-69
2023/07/28 03:15:21;;;;;;;2.77;1.83;;;;;;;16.79;100.00;101400.25;2533625;23;20209;-69
2023/07/28 03:16:22;;;;;;;6.53;2.20;;;;;;;16.78;100.00;101407.91;2533515;23;20152;-69
2023/07/28 03:17:22;;;;;;;4.23;1.97;;;;;;;16.76;100.00;101398.38;2533586;23;20410;-69
2023/07/28 03:18:23;;;;;;;3.50;2.10;;;;;;;16.73;100.00;101402.09;2533671;23;20154;-69
2023/07/28 03:19:23;;;;;;;4.53;1.87;;;;;;;16.76;100.00;101410.34;2533678;23;20158;-69
2023/07/28 03:20:24;;;;;;;3.77;2.00;;;;;;;16.65;100.00;101381.97;2533647;23;20513;-69
2023/07/28 03:21:24;;;;;;;3.00;2.00;;;;;;;16.47;100.00;101347.50;2533576;23;20209;-69
2023/07/28 03:22:25;;;;;;;5.93;1.93;;;;;;;16.38;100.00;101334.19;2533576;23;20463;-69
2023/07/28 03:23:25;;;;;;;5.27;2.10;;;;;;;16.78;100.00;101398.69;2533561;23;20497;-69
2023/07/28 03:24:26;;;;;;;8.97;2.17;;;;;;;16.81;100.00;101400.59;2533626;23;20185;-69
2023/07/28 03:25:26;;;;;;;5.63;2.70;;;;;;;16.86;100.00;101400.00;2533640;23;20158;-69
2023/07/28 03:26:27;;;;;;;4.97;2.30;;;;;;;16.44;100.00;101342.81;2533635;23;20177;-69
2023/07/28 03:27:27;;;;;;;8.37;2.27;;;;;;;16.88;100.00;101407.97;2533638;23;20681;-69
2023/07/28 03:28:28;;;;;;;5.60;2.23;;;;;;;16.89;100.00;101413.09;2533665;23;20190;-69
2023/07/28 03:29:28;;;;;;;8.37;2.37;;;;;;;16.90;100.00;101415.44;2533548;23;20177;-69
2023/07/28 03:30:29;;;;;;;5.27;2.40;;;;;;;16.75;100.00;101402.44;2520619;23;20719;-69
2023/07/28 03:31:29;;;;;;;6.93;2.53;;;;;;;16.71;100.00;101380.16;2520759;23;20154;-69
2023/07/28 03:32:29;;;;;;;6.63;2.20;;;;;;;16.94;100.00;101412.50;2533618;23;20552;-69
2023/07/28 03:33:30;;;;;;;4.30;2.40;;;;;;;16.96;100.00;101415.63;2533652;23;20153;-69
2023/07/28 03:34:30;;;;;;;5.37;2.30;;;;;;;16.62;100.00;101361.75;2533484;23;20158;-69
2023/07/28 03:35:31;;;;;;;4.17;2.17;;;;;;;17.00;100.00;101411.47;2533601;23;20157;-69
2023/07/28 03:36:31;;;;;;;3.00;1.80;;;;;;;16.66;100.00;101360.38;2533617;23;20157;-69
2023/07/28 03:37:32;;;;;;;5.07;2.50;;;;;;;17.01;100.00;101407.41;2533520;23;20497;-70
2023/07/28 03:38:33;;;;;;;4.27;2.20;;;;;;;17.01;100.00;101404.59;2533552;23;20176;-69
2023/07/28 03:39:33;;;;;;;3.27;2.03;;;;;;;17.02;100.00;101411.00;2533613;23;20378;-69
2023/07/28 03:40:34;;;;;;;4.03;2.20;;;;;;;16.32;100.00;101302.44;2533560;23;20252;-69
2023/07/28 03:41:34;;;;;;;5.07;2.43;;;;;;;16.13;100.00;101274.81;2533462;23;20185;-69
2023/07/28 03:42:35;;;;;;;5.53;2.70;;;;;;;16.95;100.00;101400.09;2533577;23;20609;-69
2023/07/28 03:43:35;;;;;;;7.67;2.50;;;;;;;17.06;100.00;101412.41;2533566;23;20152;-69
2023/07/28 03:44:37;;;;;;;5.07;2.43;;;;;;;17.01;100.00;101413.00;2533584;23;20155;-69
2023/07/28 03:45:38;;;;;;;9.50;3.00;;;;;;;17.00;100.00;101419.09;2533579;23;20204;-69
2023/07/28 03:46:38;;;;;;;11.83;3.23;;;;;;;17.03;100.00;101421.75;2533651;23;20374;-69
2023/07/28 03:47:39;;;;;;;4.50;2.60;;;;;;;17.03;100.00;101423.75;2533593;23;20151;-69
2023/07/28 03:48:40;;;;;;;6.73;2.60;;;;;;;17.06;100.00;101417.25;2533525;23;20511;-69
2023/07/28 03:49:40;;;;;;;5.47;2.50;;;;;;;17.09;100.00;101419.91;2534185;23;20232;-69
2023/07/28 03:50:40;;;;;;;4.07;2.20;;;;;;;17.01;100.00;101403.84;2534245;23;20164;-69
2023/07/28 03:51:41;;;;;;;4.50;2.40;;;;;;;16.74;100.00;101379.25;2534301;23;20231;-69
2023/07/28 03:52:41;;;;;;;6.37;1.83;;;;;;;16.62;100.00;101362.53;2534181;23;20196;-69
2023/07/28 03:53:41;;;;;;;4.90;1.70;;;;;;;16.92;100.00;101412.97;2534274;23;20215;-70
2023/07/28 03:54:42;;;;;;;4.00;2.17;;;;;;;17.03;100.00;101426.56;2534301;23;20185;-70
2023/07/28 03:55:42;;;;;;;2.53;1.63;;;;;;;17.07;100.00;101427.97;2534318;23;20153;-69
2023/07/28 03:56:43;;;;;;;4.40;1.90;;;;;;;17.11;100.00;101422.28;2534247;23;20157;-69
2023/07/28 03:57:43;;;;;;;4.90;1.93;;;;;;;17.12;100.00;101426.63;2534536;23;20154;-69
2023/07/28 03:58:44;;;;;;;4.90;2.30;;;;;;;17.11;100.00;101428.63;2534334;23;20164;-69
2023/07/28 03:59:44;;;;;;;3.67;1.80;;;;;;;17.13;100.00;101423.38;2521452;23;20173;-69
2023/07/28 04:00:44;;;;;;;3.63;1.90;;;;;;;17.16;100.00;101418.88;2521743;23;20675;-69
2023/07/28 04:01:45;;;;;;;3.50;2.03;;;;;;;17.23;100.00;101429.78;2534171;23;20647;-69
2023/07/28 04:02:46;;;;;;;4.67;1.90;;;;;;;17.26;100.00;101428.88;2534250;23;20498;-69
2023/07/28 04:03:46;;;;;;;5.50;2.20;;;;;;;16.98;100.00;101384.38;2534340;23;20154;-69
2023/07/28 04:04:52;;;;;;;5.13;2.60;;;;;;;17.28;100.00;101435.59;2534264;23;20229;-69
2023/07/28 04:05:53;;;;;;;6.17;2.63;;;;;;;16.79;100.00;101363.88;2534421;23;20142;-69
2023/07/28 04:06:53;;;;;;;5.17;2.40;;;;;;;17.30;100.00;101432.31;2534387;23;20382;-69
2023/07/28 04:07:54;;;;;;;6.40;2.30;;;;;;;17.33;100.00;101437.00;2534326;23;20157;-69
2023/07/28 04:08:54;;;;;;;6.87;2.23;;;;;;;17.38;100.00;101436.41;2533908;23;20165;-69
2023/07/28 04:09:54;;;;;;;4.87;2.20;;;;;;;17.10;100.00;101384.28;2534347;23;20181;-69
2023/07/28 04:10:55;;;;;;;3.57;1.90;;;;;;;17.37;100.00;101416.00;2534401;23;20627;-69
2023/07/28 04:11:55;;;;;;;4.33;1.87;;;;;;;17.46;100.00;101431.34;2534257;23;20161;-69
2023/07/28 04:12:56;;;;;;;4.93;2.00;;;;;;;17.50;100.00;101421.53;2534326;23;20150;-69
2023/07/28 04:13:56;;;;;;;4.23;1.87;;;;;;;17.55;100.00;101423.75;2521364;23;20238;-69
2023/07/28 04:14:56;;;;;;;3.93;1.80;;;;;;;17.53;100.00;101410.19;2521497;23;20184;-70
2023/07/28 04:15:57;;;;;;;3.03;1.73;;;;;;;17.58;100.00;101409.59;2534267;23;20151;-69
2023/07/28 04:16:57;;;;;;;2.47;1.70;;;;;;;17.18;100.00;101347.16;2534339;23;20151;-69
2023/07/28 04:17:58;;;;;;;2.53;1.60;;;;;;;17.72;100.00;101421.50;2534247;23;20524;-69
2023/07/28 04:18:59;;;;;;;2.17;1.80;;;;;;;17.76;100.00;101425.69;2534338;23;20150;-69
2023/07/28 04:19:59;;;;;;;4.07;1.50;;;;;;;17.80;100.00;101423.53;2534267;23;20170;-69
2023/07/28 04:20:59;;;;;;;3.50;1.60;;;;;;;17.64;100.00;101395.75;2534208;23;20146;-69
2023/07/28 04:22:00;;;;;;;4.07;1.87;;;;;;;17.41;100.00;101357.09;2534200;23;20179;-69
2023/07/28 04:23:01;;;;;;;4.13;1.90;;;;;;;17.68;100.00;101433.59;2534231;23;20212;-69
2023/07/28 04:24:01;;;;;;;2.97;2.40;;;;;;;17.88;100.00;101430.44;2534141;23;20154;-69
2023/07/28 04:25:02;;;;;;;4.53;2.20;;;;;;;17.90;100.00;101421.56;2534070;23;20147;-69
2023/07/28 04:26:02;;;;;;;3.57;2.20;;;;;;;17.93;100.00;101430.56;2534203;23;20173;-69
2023/07/28 04:27:03;;;;;;;4.60;1.90;;;;;;;17.93;100.00;101422.16;2534025;23;20186;-69
2023/07/28 04:28:03;;;;;;;3.87;2.00;;;;;;;17.96;100.00;101422.50;2534111;23;20623;-70
2023/07/28 04:29:04;;;;;;;2.97;2.00;;;;;;;17.98;100.00;101429.22;2531978;23;20212;-69
2023/07/28 04:30:05;;;;;;;3.90;2.17;;;;;;;17.92;100.00;101430.28;2533154;23;20180;-69
2023/07/28 04:31:06;;;;;;;4.87;1.80;;;;;;;17.94;100.00;101432.13;2533155;23;20676;-69
2023/07/28 04:32:06;;;;;;;4.77;2.00;;;;;;;17.98;100.00;101425.59;2531861;23;20696;-69
2023/07/28 04:33:07;;;;;;;5.27;2.00;;;;;;;18.02;100.00;101424.22;2533331;23;20178;-69
2023/07/28 04:34:07;;;;;;;6.33;2.17;;;;;;;18.07;100.00;101425.63;2533944;23;20159;-69
2023/07/28 04:35:08;;;;;;;3.93;2.00;;;;;;;18.04;100.00;101428.09;2533919;23;20153;-69
2023/07/28 04:36:09;;;;;;;4.10;1.90;;;;;;;18.09;100.00;101418.31;2533856;23;20225;-70
2023/07/28 04:37:09;;;;;;;4.63;1.60;;;;;;;18.09;100.00;101407.09;2533931;23;20605;-69
2023/07/28 04:38:09;;;;;;;3.53;1.80;;;;;;;18.17;100.00;101421.59;2533969;23;20865;-69
2023/07/28 04:39:10;;;;;;;3.10;1.80;;;;;;;18.17;100.00;101416.75;2531980;23;20151;-69
2023/07/28 04:40:11;;;;;;;2.80;1.80;;;;;;;17.81;100.00;101368.25;2533586;23;20147;-69
2023/07/28 04:41:11;;;;;;;3.97;1.90;;;;;;;18.09;100.00;101404.28;2533722;23;20182;-70